Time;durP1;ratioP1;P1;durP2;ratioP2;P2;SDS_P1;SDS_P2;PMS_P1;PMS_P2;Temp;Humidity;BMP_temperature;BMP_pressure;BME280_temperature;BME280_humidity;BME280_pressure;Samples;Min_cycle;Max_cycle;Signal;HPM_P1;HPM_P2
2021/01/31 00:00:32;;;;;;;4.50;3.97;;;4.40;99.90;;;;;;5033047;28;20612;-63
2021/01/31 00:02:59;;;;;;;4.83;3.53;;;4.40;99.90;;;;;;5032973;28;20206;-63
2021/01/31 00:05:26;;;;;;;3.67;3.37;;;4.50;99.90;;;;;;5032673;28;20594;-62
2021/01/31 00:07:53;;;;;;;4.40;4.00;;;4.40;99.90;;;;;;5032565;28;20289;-61
2021/01/31 00:10:22;;;;;;;4.20;3.80;;;4.50;99.90;;;;;;5033021;28;20205;-63
2021/01/31 00:12:49;;;;;;;4.10;3.70;;;4.60;99.90;;;;;;5032609;28;20213;-62
2021/01/31 00:15:18;;;;;;;3.90;3.50;;;4.60;99.90;;;;;;5032645;28;20210;-62
2021/01/31 00:17:45;;;;;;;5.00;3.63;;;4.70;99.90;;;;;;5032578;28;20226;-63
2021/01/31 00:20:13;;;;;;;4.17;3.70;;;4.70;99.90;;;;;;5032509;28;20309;-63
2021/01/31 00:22:39;;;;;;;4.53;3.77;;;4.50;99.90;;;;;;5032486;28;20210;-63
2021/01/31 00:25:06;;;;;;;4.60;4.20;;;4.60;99.90;;;;;;5032787;28;20206;-63
2021/01/31 00:27:33;;;;;;;4.33;3.93;;;4.60;99.90;;;;;;5031831;28;20718;-61
2021/01/31 00:30:00;;;;;;;4.63;3.90;;;4.60;99.90;;;;;;5031928;28;20198;-62
2021/01/31 00:32:28;;;;;;;4.17;3.77;;;4.60;99.90;;;;;;5031950;28;20210;-63
2021/01/31 00:34:56;;;;;;;4.70;4.30;;;4.50;99.90;;;;;;5031788;28;20214;-63
2021/01/31 00:37:23;;;;;;;4.57;4.17;;;4.50;99.90;;;;;;5032098;28;20226;-63
2021/01/31 00:39:51;;;;;;;4.30;3.90;;;4.50;99.90;;;;;;5032054;28;20233;-63
2021/01/31 00:42:19;;;;;;;4.60;4.10;;;4.60;99.90;;;;;;5032576;28;20218;-62
2021/01/31 00:44:47;;;;;;;4.10;3.70;;;4.60;99.90;;;;;;5032221;28;20612;-62
2021/01/31 00:47:15;;;;;;;4.53;4.13;;;4.50;99.90;;;;;;5031508;28;20229;-63
2021/01/31 00:49:43;;;;;;;3.73;3.43;;;4.40;99.90;;;;;;5031983;28;20224;-62
2021/01/31 00:52:10;;;;;;;3.63;3.33;;;4.40;99.90;;;;;;5031849;28;20229;-63
2021/01/31 00:54:36;;;;;;;3.77;3.40;;;4.40;99.90;;;;;;5031897;28;20207;-63
2021/01/31 00:57:02;;;;;;;4.57;3.77;;;4.30;99.90;;;;;;5031730;28;20288;-62
2021/01/31 00:59:28;;;;;;;4.23;3.83;;;4.40;99.90;;;;;;5031413;28;20222;-63
2021/01/31 01:01:55;;;;;;;4.30;3.90;;;4.40;99.90;;;;;;5031401;28;20264;-63
2021/01/31 01:04:22;;;;;;;4.70;4.27;;;4.30;99.90;;;;;;5031470;28;20202;-62
2021/01/31 01:06:48;;;;;;;4.60;4.20;;;4.20;99.90;;;;;;5031741;28;20239;-62
2021/01/31 01:09:14;;;;;;;4.33;3.93;;;4.20;99.90;;;;;;5031334;28;20198;-62
2021/01/31 01:11:42;;;;;;;4.93;4.40;;;4.20;99.90;;;;;;5031772;28;20210;-63
2021/01/31 01:14:08;;;;;;;4.97;4.10;;;4.30;99.90;;;;;;5031357;28;20213;-63
2021/01/31 01:16:34;;;;;;;5.00;4.50;;;4.40;99.90;;;;;;5031441;28;20238;-62
2021/01/31 01:19:03;;;;;;;4.80;4.23;;;4.40;99.90;;;;;;5031292;28;20714;-63
2021/01/31 01:21:31;;;;;;;5.20;4.70;;;4.40;99.90;;;;;;5031893;28;20208;-63
2021/01/31 01:23:57;;;;;;;6.13;4.67;;;4.50;99.90;;;;;;5031598;28;20209;-62
2021/01/31 01:26:27;;;;;;;6.20;4.80;;;4.70;99.90;;;;;;5031372;28;20235;-62
2021/01/31 01:28:53;;;;;;;5.33;4.83;;;4.80;99.90;;;;;;5031333;28;20241;-61
2021/01/31 01:31:19;;;;;;;4.23;3.80;;;4.80;99.90;;;;;;5031743;28;20202;-62
2021/01/31 01:33:46;;;;;;;5.20;4.70;;;4.80;99.90;;;;;;5031424;28;20233;-62
2021/01/31 01:36:12;;;;;;;4.60;4.10;;;4.70;99.90;;;;;;5031413;28;20252;-62
2021/01/31 01:38:39;;;;;;;5.67;4.90;;;4.70;99.90;;;;;;5031223;28;20217;-62
2021/01/31 01:41:05;;;;;;;5.33;4.80;;;4.70;99.90;;;;;;5031410;28;20222;-63
2021/01/31 01:43:31;;;;;;;5.07;4.43;;;4.70;99.90;;;;;;5031210;28;20229;-63
2021/01/31 01:46:23;;;;;;;5.13;4.20;;;4.70;99.90;;;;;;5031223;28;20248;-63
2021/01/31 01:48:51;;;;;;;5.10;4.60;;;4.80;99.90;;;;;;5031696;28;20672;-63
2021/01/31 01:51:18;;;;;;;5.00;4.50;;;4.80;99.90;;;;;;5035564;28;20700;-63
2021/01/31 01:53:45;;;;;;;4.60;4.03;;;4.70;99.90;;;;;;5035213;28;20210;-62
2021/01/31 01:56:18;;;;;;;4.30;3.90;;;4.60;99.90;;;;;;5035393;28;20226;-62
2021/01/31 01:58:46;;;;;;;5.17;4.27;;;4.50;99.90;;;;;;5035737;28;20207;-63
2021/01/31 02:01:14;;;;;;;5.17;4.20;;;4.40;99.90;;;;;;5035465;28;20226;-62
2021/01/31 02:03:42;;;;;;;5.37;4.20;;;4.40;99.90;;;;;;5035741;28;20887;-63
2021/01/31 02:06:14;;;;;;;5.53;4.60;;;4.50;99.90;;;;;;5036549;28;20221;-63
2021/01/31 02:08:41;;;;;;;5.53;4.50;;;4.60;99.90;;;;;;5036737;28;20210;-62
2021/01/31 02:11:08;;;;;;;5.20;4.70;;;4.50;99.90;;;;;;5038102;28;20217;-62
2021/01/31 02:13:35;;;;;;;5.80;5.20;;;4.40;99.90;;;;;;5034781;28;20207;-63
2021/01/31 02:16:06;;;;;;;5.37;4.53;;;4.50;99.90;;;;;;5034403;28;20237;-63
2021/01/31 02:18:40;;;;;;;5.20;4.70;;;4.50;99.90;;;;;;5034269;28;20206;-63
2021/01/31 02:21:41;;;;;;;4.60;4.10;;;4.50;99.90;;;;;;5033950;28;20222;-62
2021/01/31 02:24:49;;;;;;;5.63;5.03;;;4.40;99.90;;;;;;5016426;28;20267;-63
2021/01/31 02:27:57;;;;;;;4.80;4.17;;;4.20;99.90;;;;;;5034032;28;20237;-63
2021/01/31 02:31:08;;;;;;;5.00;4.50;;;4.10;99.90;;;;;;5034099;28;20268;-62
2021/01/31 02:33:42;;;;;;;4.33;3.87;;;4.00;99.90;;;;;;5033661;28;20264;-63
2021/01/31 02:36:13;;;;;;;5.00;4.40;;;3.90;99.90;;;;;;5034037;28;20230;-62
2021/01/31 02:38:45;;;;;;;4.73;4.23;;;3.80;99.90;;;;;;5033795;28;20202;-63
2021/01/31 02:41:18;;;;;;;5.77;4.77;;;3.70;99.90;;;;;;5033979;28;20312;-63
2021/01/31 02:43:48;;;;;;;5.23;4.60;;;3.80;99.90;;;;;;5033580;28;20207;-63
2021/01/31 02:46:21;;;;;;;5.80;5.20;;;4.00;99.90;;;;;;5034204;28;20242;-61
2021/01/31 02:48:52;;;;;;;5.60;4.87;;;4.10;99.90;;;;;;5033461;28;20697;-64
2021/01/31 02:51:23;;;;;;;5.20;4.47;;;4.20;99.90;;;;;;5033994;28;20203;-61
2021/01/31 02:53:58;;;;;;;6.33;4.77;;;4.30;99.90;;;;;;5033818;28;20432;-61
2021/01/31 02:56:30;;;;;;;5.73;4.70;;;4.40;99.90;;;;;;5034169;28;20229;-61
2021/01/31 02:59:03;;;;;;;5.00;4.50;;;4.40;99.90;;;;;;5035361;28;20272;-61
2021/01/31 03:01:35;;;;;;;6.37;5.00;;;4.50;99.90;;;;;;5035453;28;20689;-61
2021/01/31 03:04:06;;;;;;;5.63;5.00;;;4.50;99.90;;;;;;5035056;28;20637;-63
2021/01/31 03:06:39;;;;;;;5.80;5.20;;;4.40;99.90;;;;;;5034247;28;20233;-61
2021/01/31 03:09:09;;;;;;;6.23;5.20;;;4.30;99.90;;;;;;5033561;28;20229;-61
2021/01/31 03:11:40;;;;;;;6.83;5.97;;;4.30;99.90;;;;;;5033550;28;20202;-63
2021/01/31 03:14:12;;;;;;;6.00;5.40;;;4.50;99.90;;;;;;5033628;28;20217;-61
2021/01/31 03:16:41;;;;;;;6.10;5.30;;;4.60;99.90;;;;;;5033789;28;20237;-62
2021/01/31 03:19:13;;;;;;;6.50;5.50;;;4.70;99.90;;;;;;5033350;28;20233;-62
2021/01/31 03:21:42;;;;;;;5.80;5.20;;;4.70;99.90;;;;;;5033868;28;20221;-61
2021/01/31 03:24:15;;;;;;;6.27;5.30;;;4.70;99.90;;;;;;5033747;28;20272;-62
2021/01/31 03:26:45;;;;;;;6.07;5.47;;;4.50;99.90;;;;;;5033143;28;20230;-61
2021/01/31 03:29:12;;;;;;;5.90;5.20;;;4.30;99.90;;;;;;5033463;28;20213;-61
2021/01/31 03:31:43;;;;;;;6.97;5.63;;;4.20;99.90;;;;;;5032970;28;20693;-61
2021/01/31 03:34:14;;;;;;;6.93;5.40;;;4.20;99.90;;;;;;5032676;28;20206;-61
2021/01/31 03:36:44;;;;;;;6.43;5.73;;;4.20;99.90;;;;;;5033155;28;20226;-63
2021/01/31 03:39:13;;;;;;;7.33;5.90;;;4.20;99.90;;;;;;5032715;28;20272;-61
2021/01/31 03:41:39;;;;;;;6.50;5.80;;;4.40;99.90;;;;;;5032857;28;20210;-61
2021/01/31 03:44:05;;;;;;;6.60;5.67;;;4.50;99.90;;;;;;5032849;28;20832;-61
2021/01/31 03:46:35;;;;;;;7.20;5.90;;;4.50;99.90;;;;;;5032593;28;20296;-62
2021/01/31 03:49:06;;;;;;;7.23;5.87;;;4.40;99.90;;;;;;5032994;28;20206;-62
2021/01/31 03:51:35;;;;;;;7.00;6.00;;;4.40;99.90;;;;;;5033026;28;20252;-61
2021/01/31 03:54:02;;;;;;;7.30;6.13;;;4.30;99.90;;;;;;5033341;28;20210;-61
2021/01/31 03:56:32;;;;;;;6.37;5.53;;;4.30;99.90;;;;;;5033227;28;20222;-61
2021/01/31 03:59:00;;;;;;;7.33;5.97;;;4.40;99.90;;;;;;5033279;28;20206;-62
2021/01/31 04:01:28;;;;;;;6.47;5.70;;;4.50;99.90;;;;;;5033499;28;20229;-61
2021/01/31 04:04:02;;;;;;;6.30;5.70;;;4.40;99.90;;;;;;5033159;28;20275;-61
2021/01/31 04:06:32;;;;;;;6.80;5.90;;;4.50;99.90;;;;;;5034046;28;20242;-61
2021/01/31 04:08:59;;;;;;;7.63;6.37;;;4.40;99.90;;;;;;5033756;28;20251;-62
2021/01/31 04:11:31;;;;;;;6.37;5.67;;;4.20;99.90;;;;;;5032785;28;20209;-61
2021/01/31 04:14:02;;;;;;;6.83;6.13;;;4.20;99.90;;;;;;5033147;28;20584;-62
2021/01/31 04:16:32;;;;;;;7.20;6.17;;;4.10;99.90;;;;;;5033052;28;20651;-61
2021/01/31 04:18:58;;;;;;;6.43;5.83;;;4.10;99.90;;;;;;5032874;28;20217;-60
2021/01/31 04:21:24;;;;;;;7.70;6.90;;;4.20;99.90;;;;;;5032844;28;20260;-61
2021/01/31 04:23:50;;;;;;;7.23;6.47;;;4.20;99.90;;;;;;5032618;28;20210;-61
2021/01/31 04:26:17;;;;;;;6.87;6.23;;;4.30;99.90;;;;;;5033340;28;20234;-61
2021/01/31 04:28:43;;;;;;;7.60;6.80;;;4.40;99.90;;;;;;5032495;28;20209;-61
2021/01/31 04:31:10;;;;;;;7.80;6.40;;;4.40;99.90;;;;;;5032975;28;20209;-61
2021/01/31 04:33:36;;;;;;;7.33;6.10;;;4.40;99.90;;;;;;5032886;28;20666;-62
2021/01/31 04:36:02;;;;;;;7.40;6.57;;;4.40;99.90;;;;;;5032490;28;20226;-61
2021/01/31 04:38:28;;;;;;;18.27;10.20;;;4.60;99.90;;;;;;5031792;28;20202;-61
2021/01/31 04:40:58;;;;;;;8.30;6.93;;;4.70;99.90;;;;;;5031997;28;20222;-61
2021/01/31 04:43:25;;;;;;;8.17;6.90;;;4.90;99.90;;;;;;5032100;28;20203;-61
2021/01/31 04:45:53;;;;;;;8.17;7.37;;;5.00;99.90;;;;;;5031746;28;20210;-63
2021/01/31 04:48:31;;;;;;;10.23;9.10;;;5.00;99.90;;;;;;5031575;28;20206;-62
2021/01/31 04:51:10;;;;;;;7.27;6.33;;;4.90;99.90;;;;;;5031361;28;20225;-63
2021/01/31 04:54:03;;;;;;;8.87;7.30;;;4.80;99.90;;;;;;5031384;28;20205;-62
2021/01/31 04:56:39;;;;;;;6.70;6.00;;;4.60;99.90;;;;;;5031521;28;20222;-62
2021/01/31 04:59:27;;;;;;;7.57;6.63;;;4.40;99.90;;;;;;5031612;28;20205;-62
2021/01/31 05:01:58;;;;;;;6.73;6.03;;;4.40;99.90;;;;;;5031617;28;20202;-61
2021/01/31 05:04:27;;;;;;;7.80;6.13;;;4.30;99.90;;;;;;5031333;28;20674;-61
2021/01/31 05:06:57;;;;;;;9.43;7.67;;;4.30;99.90;;;;;;5031811;28;20233;-62
2021/01/31 05:09:25;;;;;;;7.07;6.37;;;4.30;99.90;;;;;;5031194;28;20206;-62
2021/01/31 05:11:58;;;;;;;9.37;8.37;;;4.30;99.90;;;;;;5031560;28;20580;-62
2021/01/31 05:14:37;;;;;;;7.87;7.00;;;4.20;99.90;;;;;;5031387;28;20202;-63
2021/01/31 05:17:03;;;;;;;9.50;7.97;;;4.10;99.90;;;;;;5031426;28;20229;-62
2021/01/31 05:19:33;;;;;;;8.17;7.20;;;4.20;99.90;;;;;;5031237;28;20260;-62
2021/01/31 05:21:59;;;;;;;9.97;7.57;;;4.20;99.90;;;;;;5031482;28;20210;-62
2021/01/31 05:24:27;;;;;;;9.03;7.70;;;4.40;99.90;;;;;;5032552;28;20217;-60
2021/01/31 05:26:56;;;;;;;8.47;7.33;;;4.40;99.90;;;;;;5035435;28;20628;-61
2021/01/31 05:29:27;;;;;;;7.43;6.63;;;4.50;99.90;;;;;;5035248;28;20217;-61
2021/01/31 05:32:02;;;;;;;9.77;7.33;;;4.40;99.90;;;;;;5035420;28;20206;-63
2021/01/31 05:34:34;;;;;;;7.90;6.97;;;4.30;99.90;;;;;;5035048;28;20259;-62
2021/01/31 05:37:01;;;;;;;8.00;6.93;;;4.30;99.90;;;;;;5035455;28;20230;-62
2021/01/31 05:39:43;;;;;;;7.83;7.00;;;4.30;99.90;;;;;;5034925;28;20600;-62
2021/01/31 05:42:14;;;;;;;8.00;7.07;;;4.20;99.90;;;;;;5035357;28;20210;-61
2021/01/31 05:44:42;;;;;;;9.40;7.50;;;4.30;99.90;;;;;;5034791;28;20264;-63
2021/01/31 05:47:24;;;;;;;9.07;7.27;;;4.40;99.90;;;;;;5035035;28;20234;-62
2021/01/31 05:49:53;;;;;;;8.53;7.23;;;4.50;99.90;;;;;;5035095;28;20248;-62
2021/01/31 05:52:32;;;;;;;8.23;7.27;;;4.50;99.90;;;;;;5035219;28;20208;-62
2021/01/31 05:54:59;;;;;;;8.03;7.17;;;4.40;99.90;;;;;;5034901;28;20206;-61
2021/01/31 05:57:28;;;;;;;9.23;7.83;;;4.40;99.90;;;;;;5034921;28;20225;-62
2021/01/31 05:59:55;;;;;;;8.23;7.33;;;4.50;99.90;;;;;;5034551;28;20233;-60
2021/01/31 06:02:25;;;;;;;8.40;7.50;;;4.50;99.90;;;;;;5034960;28;20210;-61
2021/01/31 06:05:13;;;;;;;7.93;7.13;;;4.60;99.90;;;;;;5035013;28;20217;-62
2021/01/31 06:07:41;;;;;;;8.13;7.33;;;4.70;99.90;;;;;;5034701;28;20230;-61
2021/01/31 06:10:11;;;;;;;8.17;7.20;;;4.70;99.90;;;;;;5034577;28;20225;-61
2021/01/31 06:12:38;;;;;;;8.20;7.40;;;4.60;99.90;;;;;;5034807;28;20226;-63
2021/01/31 06:15:08;;;;;;;8.93;7.80;;;4.50;99.90;;;;;;5034357;28;20203;-62
2021/01/31 06:17:36;;;;;;;8.47;7.57;;;4.50;99.90;;;;;;5034394;28;20230;-62
2021/01/31 06:20:08;;;;;;;8.93;7.63;;;4.50;99.90;;;;;;5034263;28;20237;-62
2021/01/31 06:22:41;;;;;;;8.70;7.47;;;4.60;99.90;;;;;;5034463;28;20203;-61
2021/01/31 06:25:11;;;;;;;8.13;7.27;;;4.60;99.90;;;;;;5034842;28;20345;-63
2021/01/31 06:27:38;;;;;;;8.60;7.70;;;4.60;99.90;;;;;;5034713;28;20314;-62
2021/01/31 06:30:19;;;;;;;8.30;7.40;;;4.70;99.90;;;;;;5034838;28;20202;-62
2021/01/31 06:32:50;;;;;;;9.30;7.40;;;4.80;99.90;;;;;;5034554;28;20297;-62
2021/01/31 06:35:18;;;;;;;8.07;7.27;;;4.80;99.90;;;;;;5033685;28;20740;-62
2021/01/31 06:37:59;;;;;;;8.40;7.20;;;4.70;99.90;;;;;;5034330;28;20237;-62
2021/01/31 06:40:37;;;;;;;7.97;6.87;;;4.80;99.90;;;;;;5034703;28;20233;-62
2021/01/31 06:43:14;;;;;;;9.10;7.83;;;4.90;99.90;;;;;;5034883;28;20217;-60
2021/01/31 06:45:47;;;;;;;9.47;7.87;;;4.80;99.90;;;;;;5034250;28;20202;-60
2021/01/31 06:48:41;;;;;;;10.07;8.50;;;4.90;99.90;;;;;;5035009;28;20210;-62
2021/01/31 06:51:37;;;;;;;9.87;8.40;;;4.90;99.90;;;;;;5034783;28;20465;-62
2021/01/31 06:54:44;;;;;;;8.73;7.57;;;4.80;99.90;;;;;;5033713;28;20263;-61
2021/01/31 06:57:23;;;;;;;8.90;7.37;;;4.70;99.90;;;;;;5034143;28;20260;-60
2021/01/31 07:00:20;;;;;;;9.33;7.83;;;4.70;99.90;;;;;;5034192;28;20228;-62
2021/01/31 07:03:22;;;;;;;8.63;7.73;;;4.60;99.90;;;;;;5019300;28;20221;-61
2021/01/31 07:06:02;;;;;;;10.63;8.60;;;4.60;99.90;;;;;;5018463;28;20210;-61
2021/01/31 07:08:46;;;;;;;8.90;7.80;;;4.70;99.90;;;;;;5033770;28;20214;-62
2021/01/31 07:11:35;;;;;;;9.57;8.13;;;4.70;99.90;;;;;;5033957;28;20206;-62
2021/01/31 07:14:38;;;;;;;10.27;7.43;;;4.70;99.90;;;;;;5033540;28;20209;-61
2021/01/31 07:17:15;;;;;;;9.63;7.43;;;4.80;99.90;;;;;;5033664;28;20226;-61
2021/01/31 07:19:48;;;;;;;8.27;7.43;;;4.80;99.90;;;;;;5033429;28;20201;-61
2021/01/31 07:22:20;;;;;;;8.90;8.00;;;4.70;99.90;;;;;;5033420;28;20210;-62
2021/01/31 07:24:51;;;;;;;9.33;7.50;;;4.70;99.90;;;;;;5033179;28;20206;-61
2021/01/31 07:27:22;;;;;;;8.90;8.00;;;4.60;99.90;;;;;;5033022;28;20233;-61
2021/01/31 07:30:00;;;;;;;9.20;7.97;;;4.60;99.90;;;;;;5033063;28;20709;-62
2021/01/31 07:32:29;;;;;;;9.33;7.57;;;4.50;99.90;;;;;;5033252;28;20206;-62
2021/01/31 07:35:03;;;;;;;9.23;7.80;;;4.60;99.90;;;;;;5032912;28;20237;-60
2021/01/31 07:37:31;;;;;;;9.27;8.07;;;4.60;99.90;;;;;;5033387;28;20229;-61
2021/01/31 07:40:07;;;;;;;8.53;7.57;;;4.70;99.90;;;;;;5032692;28;20596;-61
2021/01/31 07:42:37;;;;;;;8.20;7.40;;;4.70;99.90;;;;;;5032898;28;20206;-62
2021/01/31 07:45:10;;;;;;;9.60;7.83;;;4.70;99.90;;;;;;5032707;28;20705;-61
2021/01/31 07:47:36;;;;;;;8.23;7.33;;;4.70;99.90;;;;;;5031736;28;20234;-61
2021/01/31 07:50:21;;;;;;;8.37;7.47;;;4.70;99.90;;;;;;5033142;28;20225;-61
2021/01/31 07:52:52;;;;;;;10.03;7.73;;;4.70;99.90;;;;;;5033206;28;20228;-60
2021/01/31 07:55:28;;;;;;;9.27;7.90;;;4.80;99.90;;;;;;5033270;28;20230;-62
2021/01/31 07:58:35;;;;;;;8.47;7.50;;;4.80;99.90;;;;;;5032834;28;20226;-61
2021/01/31 08:01:03;;;;;;;8.20;7.13;;;5.00;99.90;;;;;;5033042;28;20257;-61
2021/01/31 08:03:35;;;;;;;8.17;7.30;;;5.20;99.90;;;;;;5032648;28;20256;-63
2021/01/31 08:06:09;;;;;;;8.53;6.80;;;5.20;99.90;;;;;;5032714;28;20230;-62
2021/01/31 08:08:47;;;;;;;8.97;7.10;;;5.10;99.90;;;;;;5032555;28;20210;-62
2021/01/31 08:11:56;;;;;;;7.70;6.80;;;5.10;99.90;;;;;;5032423;28;20685;-61
2021/01/31 08:15:00;;;;;;;7.40;6.60;;;5.10;99.90;;;;;;5032175;28;20202;-62
2021/01/31 08:18:08;;;;;;;8.20;7.10;;;5.20;99.90;;;;;;5032039;28;20280;-62
2021/01/31 08:20:50;;;;;;;7.10;6.40;;;5.10;99.90;;;;;;5032237;28;20272;-61
2021/01/31 08:23:46;;;;;;;7.87;7.07;;;5.10;99.90;;;;;;5033036;28;20236;-60
2021/01/31 08:26:37;;;;;;;7.13;6.43;;;5.10;99.90;;;;;;5032406;28;20226;-60
2021/01/31 08:29:03;;;;;;;9.03;6.87;;;5.10;99.90;;;;;;5032407;28;20202;-61
2021/01/31 08:31:29;;;;;;;7.50;6.77;;;5.10;99.90;;;;;;5033120;28;20199;-61
2021/01/31 08:34:02;;;;;;;7.03;6.33;;;5.10;99.90;;;;;;5032546;28;20206;-63
2021/01/31 08:36:31;;;;;;;7.60;6.80;;;5.30;99.90;;;;;;5032379;28;20729;-61
2021/01/31 08:38:59;;;;;;;7.63;6.40;;;5.20;99.90;;;;;;5032727;28;20202;-60
2021/01/31 08:41:41;;;;;;;6.67;5.97;;;5.30;99.90;;;;;;5032476;28;20233;-62
2021/01/31 08:44:40;;;;;;;9.47;6.47;;;5.30;99.90;;;;;;5032583;28;20300;-60
2021/01/31 08:47:07;;;;;;;6.50;5.83;;;5.30;99.90;;;;;;5056347;22;20564;-57
2021/01/31 08:49:33;;;;;;;6.80;6.10;;;5.40;99.90;;;;;;5031232;28;20213;-57
2021/01/31 08:52:03;;;;;;;6.23;5.63;;;5.50;99.90;;;;;;5031466;28;20213;-57
2021/01/31 08:54:30;;;;;;;7.30;5.70;;;5.70;99.90;;;;;;5031550;28;20213;-57
2021/01/31 08:56:58;;;;;;;7.03;5.93;;;5.70;99.90;;;;;;5031147;28;20226;-57
2021/01/31 08:59:27;;;;;;;6.80;6.07;;;5.70;99.90;;;;;;5031164;28;20221;-56
2021/01/31 09:02:17;;;;;;;5.93;5.33;;;5.70;99.90;;;;;;5031281;28;20221;-56
2021/01/31 09:04:45;;;;;;;6.60;5.50;;;5.70;99.90;;;;;;5031586;28;20293;-56
2021/01/31 09:07:13;;;;;;;6.20;5.60;;;5.60;99.90;;;;;;5030956;28;20226;-56
2021/01/31 09:09:50;;;;;;;6.30;5.53;;;5.60;99.90;;;;;;5031219;28;20229;-56
2021/01/31 09:12:20;;;;;;;5.63;5.13;;;5.60;99.90;;;;;;5031342;28;20205;-56
2021/01/31 09:14:47;;;;;;;6.90;5.77;;;5.50;99.90;;;;;;5030702;28;20206;-56
2021/01/31 09:17:23;;;;;;;6.97;6.27;;;5.50;99.90;;;;;;5030942;28;20252;-59
2021/01/31 09:19:49;;;;;;;6.50;5.80;;;5.40;99.90;;;;;;5030616;28;20206;-58
2021/01/31 09:22:19;;;;;;;7.13;6.43;;;5.40;99.90;;;;;;5031016;28;20217;-55
2021/01/31 09:24:51;;;;;;;6.37;5.80;;;5.50;99.90;;;;;;5030746;28;20215;-54
2021/01/31 09:27:20;;;;;;;7.20;6.50;;;5.60;99.90;;;;;;5030741;28;20226;-55
2021/01/31 09:29:48;;;;;;;8.23;6.40;;;5.60;99.90;;;;;;5031067;28;20202;-55
2021/01/31 09:32:20;;;;;;;9.10;6.40;;;5.70;99.90;;;;;;5030734;28;20739;-53
2021/01/31 09:34:48;;;;;;;7.10;6.40;;;5.70;99.90;;;;;;5030635;28;20686;-56
2021/01/31 09:37:22;;;;;;;6.77;6.17;;;5.60;99.90;;;;;;5030646;28;20225;-56
2021/01/31 09:39:50;;;;;;;7.20;6.43;;;5.70;99.90;;;;;;5030477;28;20206;-55
2021/01/31 09:42:17;;;;;;;7.33;6.50;;;5.80;99.90;;;;;;5030612;28;20213;-55
2021/01/31 09:44:51;;;;;;;7.30;6.03;;;5.80;99.90;;;;;;5030333;28;20670;-56
2021/01/31 09:47:19;;;;;;;7.30;6.60;;;6.00;99.90;;;;;;5030652;28;20288;-55
2021/01/31 09:49:49;;;;;;;7.83;7.00;;;6.00;99.90;;;;;;5030688;28;20591;-54
2021/01/31 09:52:15;;;;;;;7.37;6.67;;;6.20;99.90;;;;;;5030688;28;20217;-55
2021/01/31 09:54:41;;;;;;;7.70;6.77;;;6.40;99.90;;;;;;5030465;28;20209;-55
2021/01/31 09:57:18;;;;;;;7.20;6.47;;;6.40;99.90;;;;;;5030434;28;20233;-54
2021/01/31 09:59:45;;;;;;;7.60;6.80;;;6.50;99.90;;;;;;5030619;28;20213;-54
2021/01/31 10:02:15;;;;;;;9.33;7.23;;;6.30;99.90;;;;;;5030443;28;20741;-55
2021/01/31 10:04:44;;;;;;;8.63;7.33;;;6.30;99.90;;;;;;5030555;28;20209;-53
2021/01/31 10:07:11;;;;;;;7.77;6.97;;;6.30;99.90;;;;;;5030914;28;20226;-54
2021/01/31 10:09:40;;;;;;;6.73;6.13;;;6.30;99.90;;;;;;5030660;28;20292;-62
2021/01/31 10:12:16;;;;;;;7.83;6.27;;;6.20;99.90;;;;;;5034743;28;20202;-61
2021/01/31 10:14:44;;;;;;;7.27;6.10;;;6.00;99.90;;;;;;5034489;28;20210;-61
2021/01/31 10:17:16;;;;;;;8.23;7.00;;;5.80;99.90;;;;;;5034631;28;20226;-61
2021/01/31 10:19:43;;;;;;;7.30;6.40;;;5.70;99.90;;;;;;5034391;28;20207;-62
2021/01/31 10:22:15;;;;;;;7.70;6.90;;;5.60;99.90;;;;;;5034102;28;20230;-61
2021/01/31 10:24:47;;;;;;;8.30;7.13;;;5.50;99.90;;;;;;5034104;28;20207;-62
2021/01/31 10:27:23;;;;;;;9.53;8.13;;;5.50;99.90;;;;;;5035002;28;20254;-62
2021/01/31 10:29:50;;;;;;;14.70;10.80;;;5.60;99.90;;;;;;5033839;28;20496;-63
2021/01/31 10:32:40;;;;;;;8.93;7.27;;;5.70;99.90;;;;;;5033809;28;20610;-63
2021/01/31 10:35:25;;;;;;;8.70;7.77;;;5.80;99.90;;;;;;5033891;28;20210;-61
2021/01/31 10:37:52;;;;;;;8.17;7.13;;;5.70;99.90;;;;;;5033609;28;20249;-61
2021/01/31 10:40:18;;;;;;;7.63;6.83;;;5.80;99.90;;;;;;5033619;28;20431;-61
2021/01/31 10:42:45;;;;;;;8.97;7.30;;;6.00;99.90;;;;;;5034090;28;20217;-61
2021/01/31 10:45:14;;;;;;;8.80;7.83;;;6.20;99.90;;;;;;5033357;28;20206;-61
2021/01/31 10:47:42;;;;;;;8.40;7.00;;;6.40;99.90;;;;;;5033350;28;20289;-60
2021/01/31 10:50:10;;;;;;;8.67;7.53;;;6.60;99.90;;;;;;5033508;28;20261;-61
2021/01/31 10:52:36;;;;;;;9.27;7.10;;;6.70;99.90;;;;;;5033460;28;20633;-61
2021/01/31 10:55:04;;;;;;;8.23;6.87;;;6.80;99.90;;;;;;5033923;28;20215;-61
2021/01/31 10:57:30;;;;;;;8.00;6.60;;;6.90;99.90;;;;;;5033689;28;20706;-61
2021/01/31 10:59:57;;;;;;;8.63;7.23;;;6.90;99.90;;;;;;5033094;28;20211;-61
2021/01/31 11:02:23;;;;;;;8.10;7.10;;;6.80;99.90;;;;;;5033229;28;20232;-62
2021/01/31 11:04:49;;;;;;;9.40;7.00;;;6.60;99.90;;;;;;5033011;28;20210;-61
2021/01/31 11:07:15;;;;;;;7.70;6.90;;;6.70;99.90;;;;;;5032942;28;20237;-61
2021/01/31 11:09:42;;;;;;;8.50;7.63;;;6.80;99.90;;;;;;5033036;28;20210;-61
2021/01/31 11:12:08;;;;;;;9.73;7.80;;;6.80;99.90;;;;;;5032703;28;20202;-62
2021/01/31 11:14:34;;;;;;;9.33;7.20;;;6.60;99.90;;;;;;5016750;28;20505;-59
2021/01/31 11:17:01;;;;;;;7.70;6.90;;;6.50;99.90;;;;;;5013176;28;20235;-62
2021/01/31 11:19:27;;;;;;;8.27;6.37;;;6.30;99.90;;;;;;5012906;28;20674;-61
2021/01/31 11:21:53;;;;;;;8.23;7.17;;;6.30;99.90;;;;;;5011604;28;20317;-60
2021/01/31 11:24:20;;;;;;;8.57;6.93;;;6.30;99.90;;;;;;5013111;28;20269;-63
2021/01/31 11:26:46;;;;;;;9.53;7.30;;;6.20;99.90;;;;;;5012707;28;20230;-62
2021/01/31 11:29:12;;;;;;;8.63;7.40;;;6.00;99.90;;;;;;5014572;28;20215;-61
2021/01/31 11:31:38;;;;;;;8.63;7.17;;;6.00;99.90;;;;;;5031450;28;20749;-62
2021/01/31 11:34:05;;;;;;;8.10;6.93;;;5.90;99.90;;;;;;5012701;28;20984;-62
2021/01/31 11:36:32;;;;;;;8.23;7.30;;;5.80;99.90;;;;;;5010861;28;20289;-60
2021/01/31 11:39:05;;;;;;;7.40;6.27;;;5.80;99.90;;;;;;5012475;28;20305;-58
2021/01/31 11:41:31;;;;;;;9.53;8.07;;;5.80;99.90;;;;;;5012193;28;20226;-60
2021/01/31 11:43:57;;;;;;;8.30;7.10;;;5.70;99.90;;;;;;5011522;28;20261;-61
2021/01/31 11:46:23;;;;;;;9.00;7.33;;;5.60;99.90;;;;;;5012436;28;20623;-63
2021/01/31 11:48:49;;;;;;;8.20;6.73;;;5.70;99.90;;;;;;5012235;28;20298;-62
2021/01/31 11:51:16;;;;;;;8.57;7.50;;;5.80;99.90;;;;;;5012081;28;20206;-59
2021/01/31 11:53:44;;;;;;;7.87;7.03;;;5.70;99.90;;;;;;5012272;28;20206;-63
2021/01/31 11:56:10;;;;;;;8.33;7.17;;;5.90;99.90;;;;;;5011928;28;20242;-63
2021/01/31 11:58:37;;;;;;;8.53;7.03;;;5.90;99.90;;;;;;5012646;28;20210;-63
2021/01/31 12:01:03;;;;;;;7.57;6.77;;;6.00;99.90;;;;;;5012452;28;20226;-62
2021/01/31 12:03:29;;;;;;;8.70;7.67;;;6.10;99.90;;;;;;5012423;28;20218;-63
2021/01/31 12:05:55;;;;;;;9.33;7.57;;;6.00;99.90;;;;;;5011959;28;20254;-64
2021/01/31 12:08:23;;;;;;;8.67;7.27;;;6.10;99.90;;;;;;5012028;28;20206;-63
2021/01/31 12:10:49;;;;;;;8.87;7.20;;;6.30;99.90;;;;;;5012272;28;20213;-63
2021/01/31 12:13:15;;;;;;;9.27;7.57;;;6.40;99.90;;;;;;5011894;28;20675;-63
2021/01/31 12:15:41;;;;;;;8.87;7.30;;;6.30;99.90;;;;;;5011702;28;20584;-63
2021/01/31 12:18:08;;;;;;;8.47;7.00;;;6.40;99.90;;;;;;5011950;28;20231;-64
2021/01/31 12:20:34;;;;;;;8.40;7.17;;;6.40;99.90;;;;;;5011699;28;20230;-64
2021/01/31 12:23:00;;;;;;;9.73;7.73;;;6.60;99.90;;;;;;5011677;28;20210;-63
2021/01/31 12:25:27;;;;;;;9.10;7.33;;;6.70;99.90;;;;;;5011567;28;20207;-63
2021/01/31 12:27:54;;;;;;;8.07;6.60;;;6.80;99.90;;;;;;5011681;28;20246;-63
2021/01/31 12:30:22;;;;;;;8.83;6.53;;;6.90;99.90;;;;;;5011775;28;20214;-64
2021/01/31 12:32:49;;;;;;;8.60;6.97;;;6.90;99.90;;;;;;5011479;28;20631;-63
2021/01/31 12:35:15;;;;;;;8.13;6.67;;;6.90;99.90;;;;;;5011472;28;20225;-63
2021/01/31 12:37:41;;;;;;;8.07;6.97;;;6.80;99.90;;;;;;5011270;28;20258;-64
2021/01/31 12:40:09;;;;;;;8.33;7.03;;;6.70;99.90;;;;;;5011506;28;20312;-62
2021/01/31 12:42:36;;;;;;;8.30;6.87;;;6.60;99.90;;;;;;5011603;28;20203;-62
2021/01/31 12:45:02;;;;;;;11.20;7.13;;;6.60;99.90;;;;;;5011299;28;20233;-64
2021/01/31 12:47:29;;;;;;;8.60;6.93;;;6.80;99.90;;;;;;5011649;28;20239;-63
2021/01/31 12:49:55;;;;;;;9.67;7.00;;;6.90;99.90;;;;;;5011050;28;20210;-63
2021/01/31 12:52:21;;;;;;;10.23;8.00;;;7.00;99.90;;;;;;5011045;28;20662;-63
2021/01/31 12:54:47;;;;;;;8.57;7.03;;;7.10;99.90;;;;;;5011469;28;20206;-63
2021/01/31 12:57:13;;;;;;;8.97;6.70;;;7.20;99.90;;;;;;5011093;28;20228;-61
2021/01/31 12:59:40;;;;;;;8.40;7.20;;;7.30;99.90;;;;;;5011557;28;20214;-63
2021/01/31 13:02:06;;;;;;;8.63;6.80;;;7.40;99.90;;;;;;5011277;28;20282;-62
2021/01/31 13:04:33;;;;;;;8.17;6.90;;;7.50;99.90;;;;;;5011102;28;20210;-65
2021/01/31 13:06:59;;;;;;;8.50;6.70;;;7.70;99.90;;;;;;5010914;28;20227;-61
2021/01/31 13:09:29;;;;;;;8.50;7.07;;;7.80;99.90;;;;;;5010812;28;20682;-62
2021/01/31 13:11:55;;;;;;;8.10;7.03;;;7.90;99.90;;;;;;5011222;28;20203;-62
2021/01/31 13:14:21;;;;;;;8.93;7.27;;;7.80;99.90;;;;;;5011310;28;20211;-63
2021/01/31 13:16:48;;;;;;;8.33;7.00;;;7.60;99.90;;;;;;5011114;28;20245;-61
2021/01/31 13:19:15;;;;;;;8.90;6.93;;;7.50;99.90;;;;;;5010726;28;20211;-62